Time;durP1;ratioP1;P1;durP2;ratioP2;P2;SDS_P1;SDS_P2;PMS_P1;PMS_P2;Temp;Humidity;BMP_temperature;BMP_pressure;BME280_temperature;BME280_humidity;BME280_pressure;Samples;Min_cycle;Max_cycle;Signal;HPM_P1;HPM_P2
2022/08/16 00:00:15;;;;;;;;;;;;;;;;;;2212897;66;1234;-52
2022/08/16 00:02:51;;;;;;;;;;;;;;;;;;2212151;59;2174;-54
2022/08/16 00:05:26;;;;;;;;;;;;;;;;;;2213453;59;1282;-53
2022/08/16 00:07:59;;;;;;;;;;;;;;;;;;2214017;66;1107;-53
2022/08/16 00:10:33;;;;;;;;;;;;;;;;;;2213975;66;1259;-53
2022/08/16 00:13:08;;;;;;;;;;;;;;;;;;2213234;66;1166;-54
2022/08/16 00:15:42;;;;;;;;;;;;;;;;;;2214695;66;1193;-53
2022/08/16 00:18:18;;;;;;;;;;;;;;;;;;2215536;66;1189;-53
2022/08/16 00:20:52;;;;;;;;;;;;;;;;;;2214790;66;1212;-53
2022/08/16 00:23:25;;;;;;;;;;;;;;;;;;2214575;66;1931;-52
2022/08/16 00:25:58;;;;;;;;;;;;;;;;;;2215576;66;1148;-53
2022/08/16 00:28:31;;;;;;;;;;;;;;;;;;2213593;66;1216;-53
2022/08/16 00:31:05;;;;;;;;;;;;;;;;;;2215569;66;1187;-53
2022/08/16 00:33:41;;;;;;;;;;;;;;;;;;2213742;66;1087;-53
2022/08/16 00:36:14;;;;;;;;;;;;;;;;;;2214538;66;1351;-53
2022/08/16 00:38:47;;;;;;;;;;;;;;;;;;2215116;66;1083;-53
2022/08/16 00:41:21;;;;;;;;;;;;;;;;;;2214513;66;1205;-53
2022/08/16 00:43:54;;;;;;;;;;;;;;;;;;2214651;59;1999;-53
2022/08/16 00:46:29;;;;;;;;;;;;;;;;;;2214775;59;1270;-53
2022/08/16 00:49:07;;;;;;;;;;;;;;;;;;2214918;66;1089;-54
2022/08/16 00:51:40;;;;;;;;;;;;;;;;;;2213693;59;1746;-53
2022/08/16 00:54:14;;;;;;;;;;;;;;;;;;2214981;66;1206;-53
2022/08/16 00:56:49;;;;;;;;;;;;;;;;;;2214972;66;1171;-53
2022/08/16 00:59:23;;;;;;;;;;;;;;;;;;2214269;66;1248;-53
2022/08/16 01:01:57;;;;;;;;;;;;;;;;;;2214897;59;1643;-52
2022/08/16 01:04:33;;;;;;;;;;;;;;;;;;2213038;59;1941;-54
2022/08/16 01:07:06;;;;;;;;;;;;;;;;;;2213345;66;1222;-53
2022/08/16 01:09:41;;;;;;;;;;;;;;;;;;2215285;66;1195;-53
2022/08/16 01:12:15;;;;;;;;;;;;;;;;;;2215356;59;1290;-53
2022/08/16 01:14:53;;;;;;;;;;;;;;;;;;2215168;66;1118;-53
2022/08/16 01:17:28;;;;;;;;;;;;;;;;;;2215406;66;1202;-53
2022/08/16 01:20:06;;;;;;;;;;;;;;;;;;2213922;66;1185;-52
2022/08/16 01:22:43;;;;;;;;;;;;;;;;;;2215898;66;1940;-52
2022/08/16 01:25:21;;;;;;;;;;;;;;;;;;2215699;66;1225;-53
2022/08/16 01:27:55;;;;;;;;;;;;;;;;;;2215053;66;1095;-53
2022/08/16 01:30:30;;;;;;;;;;;;;;;;;;2215622;66;1206;-53
2022/08/16 01:33:05;;;;;;;;;;;;;;;;;;2214949;66;1143;-53
2022/08/16 01:35:41;;;;;;;;;;;;;;;;;;2214631;59;1377;-53
2022/08/16 01:38:19;;;;;;;;;;;;;;;;;;2215389;66;1099;-52
2022/08/16 01:40:56;;;;;;;;;;;;;;;;;;2213597;66;1199;-53
2022/08/16 01:43:30;;;;;;;;;;;;;;;;;;2214984;59;1928;-53
2022/08/16 01:46:04;;;;;;;;;;;;;;;;;;2215591;66;1001;-52
2022/08/16 01:48:37;;;;;;;;;;;;;;;;;;2216003;66;1194;-53
2022/08/16 01:51:11;;;;;;;;;;;;;;;;;;2216059;58;1285;-53
2022/08/16 01:53:44;;;;;;;;;;;;;;;;;;2215703;66;1104;-53
2022/08/16 01:56:21;;;;;;;;;;;;;;;;;;2216055;66;1157;-53
2022/08/16 01:58:54;;;;;;;;;;;;;;;;;;2214852;66;1104;-53
2022/08/16 02:01:27;;;;;;;;;;;;;;;;;;2215385;59;1610;-53
2022/08/16 02:04:01;;;;;;;;;;;;;;;;;;2213985;59;1929;-53
2022/08/16 02:06:34;;;;;;;;;;;;;;;;;;2216066;59;1280;-53
2022/08/16 02:09:08;;;;;;;;;;;;;;;;;;2214912;66;1257;-52
2022/08/16 02:11:46;;;;;;;;;;;;;;;;;;2216572;59;1281;-52
2022/08/16 02:14:19;;;;;;;;;;;;;;;;;;2216990;66;1261;-54
2022/08/16 02:16:52;;;;;;;;;;;;;;;;;;2216709;66;1330;-53
2022/08/16 02:19:27;;;;;;;;;;;;;;;;;;2215956;66;1327;-52
2022/08/16 02:22:01;;;;;;;;;;;;;;;;;;2215935;66;1098;-53
2022/08/16 02:24:35;;;;;;;;;;;;;;;;;;2216583;66;1977;-53
2022/08/16 02:27:11;;;;;;;;;;;;;;;;;;2214743;66;1622;-52
2022/08/16 02:29:45;;;;;;;;;;;;;;;;;;2215390;66;1229;-53
2022/08/16 02:32:19;;;;;;;;;;;;;;;;;;2216891;66;1221;-53
2022/08/16 02:34:52;;;;;;;;;;;;;;;;;;2216021;66;1569;-56
2022/08/16 02:37:25;;;;;;;;;;;;;;;;;;2215870;59;1478;-53
2022/08/16 02:39:58;;;;;;;;;;;;;;;;;;2215826;66;1155;-53
2022/08/16 02:42:34;;;;;;;;;;;;;;;;;;2214592;66;1139;-52
2022/08/16 02:45:07;;;;;;;;;;;;;;;;;;2216241;66;1933;-53
2022/08/16 02:47:41;;;;;;;;;;;;;;;;;;2216431;66;1096;-53
2022/08/16 02:50:14;;;;;;;;;;;;;;;;;;2215734;59;1193;-53
2022/08/16 02:52:47;;;;;;;;;;;;;;;;;;2214941;66;1144;-52
2022/08/16 02:55:20;;;;;;;;;;;;;;;;;;2217450;66;1261;-52
2022/08/16 02:57:56;;;;;;;;;;;;;;;;;;2216339;66;1285;-53
2022/08/16 03:00:29;;;;;;;;;;;;;;;;;;2216639;66;1128;-52
2022/08/16 03:03:03;;;;;;;;;;;;;;;;;;2213322;59;1714;-53
2022/08/16 03:05:36;;;;;;;;;;;;;;;;;;2215191;59;1950;-53
2022/08/16 03:08:09;;;;;;;;;;;;;;;;;;2216882;59;1279;-52
2022/08/16 03:10:42;;;;;;;;;;;;;;;;;;2217583;59;1270;-52
2022/08/16 03:13:18;;;;;;;;;;;;;;;;;;2216281;59;1250;-52
2022/08/16 03:15:52;;;;;;;;;;;;;;;;;;2217333;66;993;-52
2022/08/16 03:18:25;;;;;;;;;;;;;;;;;;2216861;66;1268;-52
2022/08/16 03:20:58;;;;;;;;;;;;;;;;;;2214767;66;1210;-53
2022/08/16 03:23:31;;;;;;;;;;;;;;;;;;2214149;66;1983;-53
2022/08/16 03:26:05;;;;;;;;;;;;;;;;;;2214535;66;1193;-53
2022/08/16 03:28:41;;;;;;;;;;;;;;;;;;2214714;66;1127;-52
2022/08/16 03:31:14;;;;;;;;;;;;;;;;;;2215918;66;1267;-53
2022/08/16 03:33:47;;;;;;;;;;;;;;;;;;2216705;66;1210;-53
2022/08/16 03:36:20;;;;;;;;;;;;;;;;;;2215351;66;1476;-53
2022/08/16 03:38:54;;;;;;;;;;;;;;;;;;2213725;59;1414;-53
2022/08/16 03:41:27;;;;;;;;;;;;;;;;;;2215520;66;1163;-57
2022/08/16 03:44:06;;;;;;;;;;;;;;;;;;2214703;59;1975;-52
2022/08/16 03:46:39;;;;;;;;;;;;;;;;;;2214608;66;1220;-52
2022/08/16 03:49:13;;;;;;;;;;;;;;;;;;2215539;58;1280;-53
2022/08/16 04:07:49;;;;;;;;;;;;;;;;;;2359528;53;1916;-64
2022/08/16 04:10:22;;;;;;;;;;;;;;;;;;2214617;59;2242;-62
2022/08/16 04:12:55;;;;;;;;;;;;;;;;;;2217431;58;1282;-63
2022/08/16 04:15:29;;;;;;;;;;;;;;;;;;2217258;66;1162;-64
2022/08/16 04:18:02;;;;;;;;;;;;;;;;;;2217411;59;1163;-62
2022/08/16 04:20:35;;;;;;;;;;;;;;;;;;2223931;53;3629;-54
2022/08/16 04:23:11;;;;;;;;;;;;;;;;;;2210396;59;2149;-53
2022/08/16 04:25:45;;;;;;;;;;;;;;;;;;2210192;59;1932;-52
2022/08/16 04:28:18;;;;;;;;;;;;;;;;;;2210846;59;1187;-53
2022/08/16 04:30:51;;;;;;;;;;;;;;;;;;2209583;59;1265;-53
2022/08/16 04:33:24;;;;;;;;;;;;;;;;;;2207813;67;1311;-52
2022/08/16 04:35:58;;;;;;;;;;;;;;;;;;2207359;59;1358;-53
2022/08/16 04:38:34;;;;;;;;;;;;;;;;;;2206769;67;1127;-52
2022/08/16 04:41:07;;;;;;;;;;;;;;;;;;2206941;59;1246;-52
2022/08/16 04:43:40;;;;;;;;;;;;;;;;;;2207221;59;1231;-53
2022/08/16 04:46:15;;;;;;;;;;;;;;;;;;2206852;67;1932;-52
2022/08/16 04:48:48;;;;;;;;;;;;;;;;;;2206998;67;1052;-52
2022/08/16 04:51:21;;;;;;;;;;;;;;;;;;2206852;67;1252;-54
2022/08/16 04:53:57;;;;;;;;;;;;;;;;;;2207181;67;1215;-52
2022/08/16 04:56:30;;;;;;;;;;;;;;;;;;2206655;59;1233;-52
2022/08/16 04:59:04;;;;;;;;;;;;;;;;;;2206972;67;1096;-54
2022/08/16 05:01:38;;;;;;;;;;;;;;;;;;2206010;59;1544;-52
2022/08/16 05:04:11;;;;;;;;;;;;;;;;;;2205923;59;1947;-53
2022/08/16 05:06:44;;;;;;;;;;;;;;;;;;2206725;67;1302;-53
2022/08/16 05:09:20;;;;;;;;;;;;;;;;;;2206558;67;1217;-53
2022/08/16 05:11:53;;;;;;;;;;;;;;;;;;2206858;59;1341;-52
2022/08/16 05:14:26;;;;;;;;;;;;;;;;;;2207083;60;1138;-53
2022/08/16 05:17:00;;;;;;;;;;;;;;;;;;2207973;67;1053;-52
2022/08/16 05:19:33;;;;;;;;;;;;;;;;;;2207563;67;1151;-53
2022/08/16 05:22:06;;;;;;;;;;;;;;;;;;2207530;59;1216;-52
2022/08/16 05:24:42;;;;;;;;;;;;;;;;;;2206993;67;1932;-53
2022/08/16 05:27:15;;;;;;;;;;;;;;;;;;2207649;67;1225;-52
2022/08/16 05:29:48;;;;;;;;;;;;;;;;;;2207283;67;1135;-52
2022/08/16 05:32:22;;;;;;;;;;;;;;;;;;2207680;67;1282;-52
2022/08/16 05:34:55;;;;;;;;;;;;;;;;;;2207129;67;1209;-53
2022/08/16 05:37:28;;;;;;;;;;;;;;;;;;2207696;59;1439;-52
2022/08/16 05:40:06;;;;;;;;;;;;;;;;;;2207527;59;1221;-52
2022/08/16 05:42:39;;;;;;;;;;;;;;;;;;2207610;59;1245;-52
2022/08/16 05:45:12;;;;;;;;;;;;;;;;;;2208043;59;1951;-53
2022/08/16 05:47:45;;;;;;;;;;;;;;;;;;2207915;67;1082;-51
2022/08/16 05:50:18;;;;;;;;;;;;;;;;;;2207628;67;1798;-53
2022/08/16 05:52:52;;;;;;;;;;;;;;;;;;2207053;67;1070;-52
2022/08/16 05:55:28;;;;;;;;;;;;;;;;;;2209193;67;1142;-55
2022/08/16 05:58:01;;;;;;;;;;;;;;;;;;2207135;59;1295;-53
2022/08/16 06:00:34;;;;;;;;;;;;;;;;;;2208340;67;1248;-53
2022/08/16 06:03:07;;;;;;;;;;;;;;;;;;2206882;59;1555;-53
2022/08/16 06:05:40;;;;;;;;;;;;;;;;;;2208874;67;1974;-53
2022/08/16 06:08:13;;;;;;;;;;;;;;;;;;2209338;67;1082;-52
2022/08/16 06:10:49;;;;;;;;;;;;;;;;;;2208490;59;1279;-53
2022/08/16 06:13:22;;;;;;;;;;;;;;;;;;2208309;59;1576;-53
2022/08/16 06:15:55;;;;;;;;;;;;;;;;;;2208643;67;1090;-53
2022/08/16 06:18:29;;;;;;;;;;;;;;;;;;2207906;67;1108;-53
2022/08/16 06:21:02;;;;;;;;;;;;;;;;;;2208114;59;1207;-54
2022/08/16 06:23:35;;;;;;;;;;;;;;;;;;2208582;59;1314;-58
2022/08/16 06:26:11;;;;;;;;;;;;;;;;;;2207533;67;1932;-53
2022/08/16 06:28:44;;;;;;;;;;;;;;;;;;2207725;59;1106;-53
2022/08/16 06:31:18;;;;;;;;;;;;;;;;;;2208269;67;1173;-53
2022/08/16 06:33:51;;;;;;;;;;;;;;;;;;2207301;67;1719;-53
2022/08/16 06:36:25;;;;;;;;;;;;;;;;;;2207898;59;1347;-52
2022/08/16 06:38:58;;;;;;;;;;;;;;;;;;2208286;67;1318;-53
2022/08/16 06:41:34;;;;;;;;;;;;;;;;;;2207899;67;1422;-54
2022/08/16 06:44:07;;;;;;;;;;;;;;;;;;2207845;59;1239;-53
2022/08/16 06:46:40;;;;;;;;;;;;;;;;;;2208167;67;1933;-53
2022/08/16 06:49:14;;;;;;;;;;;;;;;;;;2207951;67;1103;-53
2022/08/16 06:51:47;;;;;;;;;;;;;;;;;;2207345;67;1207;-54
2022/08/16 06:54:20;;;;;;;;;;;;;;;;;;2207517;67;1158;-53
2022/08/16 06:56:56;;;;;;;;;;;;;;;;;;2207406;67;1220;-54
2022/08/16 06:59:29;;;;;;;;;;;;;;;;;;2207785;67;1107;-54
2022/08/16 07:02:03;;;;;;;;;;;;;;;;;;2206597;59;1455;-54
2022/08/16 07:04:36;;;;;;;;;;;;;;;;;;2207872;59;1211;-54
2022/08/16 07:07:09;;;;;;;;;;;;;;;;;;2207528;67;1920;-54
2022/08/16 07:09:43;;;;;;;;;;;;;;;;;;2207254;67;1122;-54
2022/08/16 07:12:18;;;;;;;;;;;;;;;;;;2207766;59;1421;-54
2022/08/16 07:14:52;;;;;;;;;;;;;;;;;;2206957;67;1056;-54
2022/08/16 07:17:25;;;;;;;;;;;;;;;;;;2207624;67;1274;-56
2022/08/16 07:19:58;;;;;;;;;;;;;;;;;;2207569;67;1143;-54
2022/08/16 07:22:31;;;;;;;;;;;;;;;;;;2207745;59;1282;-54
2022/08/16 07:25:06;;;;;;;;;;;;;;;;;;2207476;67;1937;-54
2022/08/16 07:27:42;;;;;;;;;;;;;;;;;;2207414;67;1175;-53
2022/08/16 07:30:16;;;;;;;;;;;;;;;;;;2207469;67;1249;-55
2022/08/16 07:32:50;;;;;;;;;;;;;;;;;;2207426;67;1310;-54
2022/08/16 07:35:23;;;;;;;;;;;;;;;;;;2207411;67;1238;-55
2022/08/16 07:37:56;;;;;;;;;;;;;;;;;;2207371;67;1244;-54
2022/08/16 07:40:30;;;;;;;;;;;;;;;;;;2207061;67;1262;-54
2022/08/16 07:43:07;;;;;;;;;;;;;;;;;;2206836;59;1283;-55
2022/08/16 07:45:40;;;;;;;;;;;;;;;;;;2207632;67;1928;-54
2022/08/16 07:48:13;;;;;;;;;;;;;;;;;;2207324;67;1209;-54
2022/08/16 07:50:47;;;;;;;;;;;;;;;;;;2206864;67;1230;-54
2022/08/16 07:53:20;;;;;;;;;;;;;;;;;;2207098;67;1285;-55
2022/08/16 07:55:53;;;;;;;;;;;;;;;;;;2205709;67;1909;-54
2022/08/16 07:58:29;;;;;;;;;;;;;;;;;;2207454;67;1220;-55
2022/08/16 08:01:04;;;;;;;;;;;;;;;;;;2206755;67;1132;-54
2022/08/16 08:03:37;;;;;;;;;;;;;;;;;;2207760;59;1895;-54
2022/08/16 08:06:11;;;;;;;;;;;;;;;;;;2207657;67;1932;-54
2022/08/16 08:08:44;;;;;;;;;;;;;;;;;;2208380;67;1151;-53
2022/08/16 08:11:17;;;;;;;;;;;;;;;;;;2207979;59;1414;-55
2022/08/16 08:13:54;;;;;;;;;;;;;;;;;;2207855;67;1144;-56
2022/08/16 08:16:28;;;;;;;;;;;;;;;;;;2208075;67;1210;-54
2022/08/16 08:19:01;;;;;;;;;;;;;;;;;;2207359;67;1203;-54
2022/08/16 08:21:35;;;;;;;;;;;;;;;;;;2207757;59;1136;-54
2022/08/16 08:24:09;;;;;;;;;;;;;;;;;;2207522;67;1295;-54
2022/08/16 08:26:43;;;;;;;;;;;;;;;;;;2207445;67;1932;-53
2022/08/16 08:29:19;;;;;;;;;;;;;;;;;;2206852;67;1210;-56
2022/08/16 08:31:52;;;;;;;;;;;;;;;;;;2207405;67;1235;-58
2022/08/16 08:34:25;;;;;;;;;;;;;;;;;;2206677;67;1238;-54
2022/08/16 08:36:58;;;;;;;;;;;;;;;;;;2207549;59;1311;-56
2022/08/16 08:39:31;;;;;;;;;;;;;;;;;;2206867;67;1363;-54
2022/08/16 08:42:04;;;;;;;;;;;;;;;;;;2207528;67;1206;-54
2022/08/16 08:44:40;;;;;;;;;;;;;;;;;;2207597;59;1262;-54
2022/08/16 08:47:14;;;;;;;;;;;;;;;;;;2207328;67;1929;-53
2022/08/16 08:49:47;;;;;;;;;;;;;;;;;;2207232;67;1083;-53
2022/08/16 08:52:20;;;;;;;;;;;;;;;;;;2207646;67;1270;-54
2022/08/16 08:54:53;;;;;;;;;;;;;;;;;;2209785;67;1276;-54
2022/08/16 08:57:27;;;;;;;;;;;;;;;;;;2206850;67;1454;-54
2022/08/16 09:00:03;;;;;;;;;;;;;;;;;;2207424;67;1210;-54
2022/08/16 09:02:36;;;;;;;;;;;;;;;;;;2206494;59;1666;-55
2022/08/16 09:05:10;;;;;;;;;;;;;;;;;;2206714;67;1168;-54
2022/08/16 09:07:43;;;;;;;;;;;;;;;;;;2207014;67;1933;-54
2022/08/16 09:10:16;;;;;;;;;;;;;;;;;;2207078;67;1216;-54
2022/08/16 09:12:50;;;;;;;;;;;;;;;;;;2206940;59;1299;-54
2022/08/16 09:15:26;;;;;;;;;;;;;;;;;;2205990;67;1073;-56
2022/08/16 09:17:59;;;;;;;;;;;;;;;;;;2206732;67;1219;-54
2022/08/16 09:20:32;;;;;;;;;;;;;;;;;;2207087;59;1253;-58
2022/08/16 09:23:05;;;;;;;;;;;;;;;;;;2208155;67;1182;-55
2022/08/16 09:25:38;;;;;;;;;;;;;;;;;;2206970;67;1925;-56
2022/08/16 09:28:12;;;;;;;;;;;;;;;;;;2208117;67;1253;-56
2022/08/16 09:30:48;;;;;;;;;;;;;;;;;;2208436;67;1195;-55
2022/08/16 09:33:22;;;;;;;;;;;;;;;;;;2207040;67;1233;-56
2022/08/16 09:35:55;;;;;;;;;;;;;;;;;;2207501;59;1327;-55
2022/08/16 09:38:29;;;;;;;;;;;;;;;;;;2207942;67;1202;-54
2022/08/16 09:41:04;;;;;;;;;;;;;;;;;;2207571;67;1217;-54
2022/08/16 09:43:38;;;;;;;;;;;;;;;;;;2207382;59;1197;-55
2022/08/16 09:46:14;;;;;;;;;;;;;;;;;;2205722;67;1936;-56
2022/08/16 09:48:47;;;;;;;;;;;;;;;;;;2208587;67;1110;-55
2022/08/16 09:51:22;;;;;;;;;;;;;;;;;;2208377;67;1292;-56
2022/08/16 09:53:55;;;;;;;;;;;;;;;;;;2208527;67;1062;-55
2022/08/16 09:56:30;;;;;;;;;;;;;;;;;;2206979;67;1198;-54
2022/08/16 09:59:04;;;;;;;;;;;;;;;;;;2208254;67;1115;-54
2022/08/16 10:01:41;;;;;;;;;;;;;;;;;;2207191;59;1524;-55
2022/08/16 10:04:14;;;;;;;;;;;;;;;;;;2207945;59;1661;-55
2022/08/16 10:06:48;;;;;;;;;;;;;;;;;;2208686;67;1945;-56
2022/08/16 10:09:21;;;;;;;;;;;;;;;;;;2209676;67;1229;-57
2022/08/16 10:14:44;;;;;;;;;;;;;;;;;;2208873;67;1077;-55
2022/08/16 10:17:21;;;;;;;;;;;;;;;;;;2209263;67;1082;-54
2022/08/16 10:19:54;;;;;;;;;;;;;;;;;;2208378;67;1187;-57
2022/08/16 10:22:27;;;;;;;;;;;;;;;;;;2208432;59;1928;-58
2022/08/16 10:25:00;;;;;;;;;;;;;;;;;;2207394;67;1558;-57
2022/08/16 10:27:34;;;;;;;;;;;;;;;;;;2207871;67;1975;-58
2022/08/16 10:30:08;;;;;;;;;;;;;;;;;;2208239;67;1650;-57
2022/08/16 10:32:44;;;;;;;;;;;;;;;;;;2208781;67;1107;-56
2022/08/16 10:35:17;;;;;;;;;;;;;;;;;;2208274;67;1217;-55
2022/08/16 10:37:51;;;;;;;;;;;;;;;;;;2208498;59;1556;-54
2022/08/16 10:40:24;;;;;;;;;;;;;;;;;;2207811;67;1247;-55
2022/08/16 10:42:58;;;;;;;;;;;;;;;;;;2208699;59;1249;-54
2022/08/16 10:45:32;;;;;;;;;;;;;;;;;;2208605;67;1242;-55
2022/08/16 10:48:10;;;;;;;;;;;;;;;;;;2209079;67;1988;-54
2022/08/16 10:50:43;;;;;;;;;;;;;;;;;;2208077;67;1235;-54
2022/08/16 10:53:17;;;;;;;;;;;;;;;;;;2208223;67;1343;-57
2022/08/16 10:55:50;;;;;;;;;;;;;;;;;;2208664;67;1164;-55
2022/08/16 10:58:23;;;;;;;;;;;;;;;;;;2209115;67;1202;-53
2022/08/16 11:00:57;;;;;;;;;;;;;;;;;;2208565;67;1227;-56
2022/08/16 11:03:33;;;;;;;;;;;;;;;;;;2208390;59;1758;-54
2022/08/16 11:06:07;;;;;;;;;;;;;;;;;;2207227;67;1187;-57
2022/08/16 11:08:41;;;;;;;;;;;;;;;;;;2207598;67;1937;-54
2022/08/16 11:11:14;;;;;;;;;;;;;;;;;;2208216;59;1244;-54
2022/08/16 11:13:48;;;;;;;;;;;;;;;;;;2206953;59;1107;-54
2022/08/16 11:16:22;;;;;;;;;;;;;;;;;;2208344;67;1219;-55
2022/08/16 11:18:58;;;;;;;;;;;;;;;;;;2207161;67;1191;-56
2022/08/16 11:21:32;;;;;;;;;;;;;;;;;;2208057;59;1211;-54
2022/08/16 11:24:05;;;;;;;;;;;;;;;;;;2207398;67;1071;-55
2022/08/16 11:26:38;;;;;;;;;;;;;;;;;;2207411;67;1978;-54
2022/08/16 11:29:12;;;;;;;;;;;;;;;;;;2207845;59;1178;-53
2022/08/16 11:31:45;;;;;;;;;;;;;;;;;;2207456;67;1186;-54
2022/08/16 11:34:21;;;;;;;;;;;;;;;;;;2207969;67;1286;-54
2022/08/16 11:36:55;;;;;;;;;;;;;;;;;;2207264;59;1353;-54
2022/08/16 11:39:28;;;;;;;;;;;;;;;;;;2207304;67;1246;-54
2022/08/16 11:42:01;;;;;;;;;;;;;;;;;;2207253;67;1261;-54
2022/08/16 11:44:35;;;;;;;;;;;;;;;;;;2207413;59;1257;-54
2022/08/16 11:47:08;;;;;;;;;;;;;;;;;;2208005;67;1920;-56
2022/08/16 11:49:44;;;;;;;;;;;;;;;;;;2207714;60;1118;-58
2022/08/16 11:52:18;;;;;;;;;;;;;;;;;;2208572;67;1251;-58
2022/08/16 11:54:51;;;;;;;;;;;;;;;;;;2207346;67;1267;-55
2022/08/16 11:57:24;;;;;;;;;;;;;;;;;;2208292;67;1195;-57
2022/08/16 11:59:58;;;;;;;;;;;;;;;;;;2210217;67;1928;-56
2022/08/16 12:02:31;;;;;;;;;;;;;;;;;;2206957;59;1607;-59
2022/08/16 12:05:07;;;;;;;;;;;;;;;;;;2208083;59;1162;-56
2022/08/16 12:07:40;;;;;;;;;;;;;;;;;;2206923;67;1941;-55
2022/08/16 12:10:16;;;;;;;;;;;;;;;;;;2207521;67;1277;-55
2022/08/16 12:12:50;;;;;;;;;;;;;;;;;;2207616;59;1179;-56
2022/08/16 12:15:25;;;;;;;;;;;;;;;;;;2207647;67;1146;-54
2022/08/16 12:17:58;;;;;;;;;;;;;;;;;;2207596;67;1278;-56
2022/08/16 12:20:35;;;;;;;;;;;;;;;;;;2207269;59;1199;-55
2022/08/16 12:23:09;;;;;;;;;;;;;;;;;;2206809;67;1179;-55
2022/08/16 12:25:42;;;;;;;;;;;;;;;;;;2207179;67;1124;-55
2022/08/16 12:28:15;;;;;;;;;;;;;;;;;;2207161;59;1904;-55
2022/08/16 12:30:48;;;;;;;;;;;;;;;;;;2206897;67;1241;-56
2022/08/16 12:33:22;;;;;;;;;;;;;;;;;;2207466;67;1066;-54
2022/08/16 12:35:58;;;;;;;;;;;;;;;;;;2207895;59;1354;-54
2022/08/16 12:38:31;;;;;;;;;;;;;;;;;;2208443;67;1757;-54
2022/08/16 12:41:05;;;;;;;;;;;;;;;;;;2208049;67;1278;-56
2022/08/16 12:43:40;;;;;;;;;;;;;;;;;;2206961;59;1263;-55
2022/08/16 12:46:14;;;;;;;;;;;;;;;;;;2207246;67;1107;-55
2022/08/16 12:48:59;;;;;;;;;;;;;;;;;;2207815;67;1931;-54
2022/08/16 12:51:36;;;;;;;;;;;;;;;;;;2208221;67;1314;-54
2022/08/16 12:54:10;;;;;;;;;;;;;;;;;;2207516;67;1116;-56
2022/08/16 12:56:45;;;;;;;;;;;;;;;;;;2207505;67;1840;-54
2022/08/16 12:59:20;;;;;;;;;;;;;;;;;;2207043;67;1602;-57
2022/08/16 13:01:53;;;;;;;;;;;;;;;;;;2206409;59;1562;-54
2022/08/16 13:04:27;;;;;;;;;;;;;;;;;;2206832;59;1259;-55
2022/08/16 13:07:04;;;;;;;;;;;;;;;;;;2207639;59;2004;-57
2022/08/16 13:09:46;;;;;;;;;;;;;;;;;;2207766;67;1116;-55
2022/08/16 13:12:23;;;;;;;;;;;;;;;;;;2207365;59;1307;-55
2022/08/16 13:14:57;;;;;;;;;;;;;;;;;;2206880;67;1239;-54
2022/08/16 13:17:30;;;;;;;;;;;;;;;;;;2207421;67;1206;-55
2022/08/16 13:20:04;;;;;;;;;;;;;;;;;;2206807;67;1261;-55
2022/08/16 13:22:43;;;;;;;;;;;;;;;;;;2207639;67;1229;-55
2022/08/16 13:25:17;;;;;;;;;;;;;;;;;;2207048;67;1221;-56
2022/08/16 13:27:52;;;;;;;;;;;;;;;;;;2207614;67;1976;-56
2022/08/16 13:30:26;;;;;;;;;;;;;;;;;;2206978;67;1245;-54
2022/08/16 13:32:59;;;;;;;;;;;;;;;;;;2206920;67;1214;-58
2022/08/16 13:35:33;;;;;;;;;;;;;;;;;;2207194;67;1868;-55
2022/08/16 13:38:09;;;;;;;;;;;;;;;;;;2207361;67;1221;-56
2022/08/16 13:40:42;;;;;;;;;;;;;;;;;;2208063;67;1239;-54
2022/08/16 13:43:15;;;;;;;;;;;;;;;;;;2207100;59;1263;-55
2022/08/16 13:45:48;;;;;;;;;;;;;;;;;;2207646;67;1164;-56
2022/08/16 13:48:21;;;;;;;;;;;;;;;;;;2207567;67;1927;-55
2022/08/16 13:50:56;;;;;;;;;;;;;;;;;;2208033;67;1261;-55
2022/08/16 13:53:32;;;;;;;;;;;;;;;;;;2207661;67;1752;-56
2022/08/16 13:56:05;;;;;;;;;;;;;;;;;;2207766;67;1210;-55
2022/08/16 13:58:39;;;;;;;;;;;;;;;;;;2207768;67;1261;-56
2022/08/16 14:01:12;;;;;;;;;;;;;;;;;;2207275;67;1255;-56
2022/08/16 14:03:45;;;;;;;;;;;;;;;;;;2208209;59;1287;-54
2022/08/16 14:06:18;;;;;;;;;;;;;;;;;;2208123;59;1356;-55
2022/08/16 14:08:54;;;;;;;;;;;;;;;;;;2208113;67;1983;-55
2022/08/16 14:11:28;;;;;;;;;;;;;;;;;;2207393;67;1331;-55
2022/08/16 14:14:02;;;;;;;;;;;;;;;;;;2207734;67;1299;-55
2022/08/16 14:16:35;;;;;;;;;;;;;;;;;;2207551;67;1226;-55
2022/08/16 14:19:09;;;;;;;;;;;;;;;;;;2208167;67;1207;-54
2022/08/16 14:21:43;;;;;;;;;;;;;;;;;;2207774;59;1228;-56
2022/08/16 14:24:18;;;;;;;;;;;;;;;;;;2207226;67;1246;-54
2022/08/16 14:26:52;;;;;;;;;;;;;;;;;;2207313;67;1218;-55
2022/08/16 14:29:25;;;;;;;;;;;;;;;;;;2206924;59;2273;-54
2022/08/16 14:31:58;;;;;;;;;;;;;;;;;;2207310;59;2400;-56
2022/08/16 14:34:31;;;;;;;;;;;;;;;;;;2205369;59;2438;-56
2022/08/16 14:37:06;;;;;;;;;;;;;;;;;;2206350;59;2429;-53
2022/08/16 14:39:42;;;;;;;;;;;;;;;;;;2206117;59;2380;-55
2022/08/16 14:42:16;;;;;;;;;;;;;;;;;;2207343;59;1421;-56
2022/08/16 14:44:50;;;;;;;;;;;;;;;;;;2206283;59;1338;-55
2022/08/16 14:47:24;;;;;;;;;;;;;;;;;;2207396;59;1275;-53
2022/08/16 14:49:57;;;;;;;;;;;;;;;;;;2206940;67;1935;-56
2022/08/16 14:52:30;;;;;;;;;;;;;;;;;;2206939;67;1127;-54
2022/08/16 14:55:06;;;;;;;;;;;;;;;;;;2207110;67;1214;-57
2022/08/16 14:57:40;;;;;;;;;;;;;;;;;;2206810;59;1355;-58
2022/08/16 15:00:16;;;;;;;;;;;;;;;;;;2206487;67;1254;-57
2022/08/16 15:02:51;;;;;;;;;;;;;;;;;;2206638;59;1568;-54
2022/08/16 15:05:27;;;;;;;;;;;;;;;;;;2207123;67;1182;-57
2022/08/16 15:08:00;;;;;;;;;;;;;;;;;;2207833;67;1922;-54
2022/08/16 15:10:36;;;;;;;;;;;;;;;;;;2206919;67;1261;-55
2022/08/16 15:13:09;;;;;;;;;;;;;;;;;;2207029;59;1331;-54
2022/08/16 15:15:43;;;;;;;;;;;;;;;;;;2206923;67;1127;-54
2022/08/16 15:18:17;;;;;;;;;;;;;;;;;;2207604;67;1224;-55
2022/08/16 15:20:53;;;;;;;;;;;;;;;;;;2207370;59;1234;-56
2022/08/16 15:23:27;;;;;;;;;;;;;;;;;;2207952;59;1157;-55
2022/08/16 15:26:03;;;;;;;;;;;;;;;;;;2208975;67;1188;-53
2022/08/16 15:28:37;;;;;;;;;;;;;;;;;;2207944;67;1989;-54
2022/08/16 15:31:11;;;;;;;;;;;;;;;;;;2207547;59;2836;-54
2022/08/16 15:33:47;;;;;;;;;;;;;;;;;;2207680;59;1468;-54
2022/08/16 15:36:22;;;;;;;;;;;;;;;;;;2207903;59;1362;-54
2022/08/16 15:38:57;;;;;;;;;;;;;;;;;;2207194;67;1239;-54
2022/08/16 15:41:55;;;;;;;;;;;;;;;;;;2207961;59;1560;-55
2022/08/16 15:44:34;;;;;;;;;;;;;;;;;;2208002;59;1614;-57
2022/08/16 15:47:09;;;;;;;;;;;;;;;;;;2208614;67;1183;-55
2022/08/16 15:49:44;;;;;;;;;;;;;;;;;;2208230;59;1982;-54
2022/08/16 15:52:19;;;;;;;;;;;;;;;;;;2207742;67;1274;-56
2022/08/16 15:54:52;;;;;;;;;;;;;;;;;;2207939;67;1294;-54
2022/08/16 15:57:29;;;;;;;;;;;;;;;;;;2208338;67;1233;-60
2022/08/16 16:00:05;;;;;;;;;;;;;;;;;;2207217;67;1222;-57
2022/08/16 16:02:39;;;;;;;;;;;;;;;;;;2206906;59;1647;-56
2022/08/16 16:05:12;;;;;;;;;;;;;;;;;;2207062;59;1396;-56
2022/08/16 16:07:46;;;;;;;;;;;;;;;;;;2206750;67;1183;-55
2022/08/16 16:10:19;;;;;;;;;;;;;;;;;;2207068;67;1945;-57
2022/08/16 16:12:56;;;;;;;;;;;;;;;;;;2206736;67;1145;-54
2022/08/16 16:15:31;;;;;;;;;;;;;;;;;;2206271;67;1006;-55
2022/08/16 16:18:04;;;;;;;;;;;;;;;;;;2207547;67;1087;-57
2022/08/16 16:20:38;;;;;;;;;;;;;;;;;;2207296;59;1238;-58
2022/08/16 16:23:11;;;;;;;;;;;;;;;;;;2207254;59;1190;-55
2022/08/16 16:25:45;;;;;;;;;;;;;;;;;;2207216;67;1090;-54
2022/08/16 16:28:24;;;;;;;;;;;;;;;;;;2207616;59;1932;-54
2022/08/16 16:30:57;;;;;;;;;;;;;;;;;;2206784;67;1297;-56
2022/08/16 16:33:32;;;;;;;;;;;;;;;;;;2206878;67;1265;-53
2022/08/16 16:36:06;;;;;;;;;;;;;;;;;;2205976;67;1420;-56
2022/08/16 16:38:39;;;;;;;;;;;;;;;;;;2206551;67;1151;-56
2022/08/16 16:41:13;;;;;;;;;;;;;;;;;;2206430;59;1211;-55
2022/08/16 16:43:50;;;;;;;;;;;;;;;;;;2206677;59;1104;-53
2022/08/16 16:46:24;;;;;;;;;;;;;;;;;;2206466;59;1200;-54
2022/08/16 16:48:59;;;;;;;;;;;;;;;;;;2206779;67;1998;-57
2022/08/16 16:51:32;;;;;;;;;;;;;;;;;;2206351;67;1226;-54
2022/08/16 16:54:06;;;;;;;;;;;;;;;;;;2206043;67;1263;-54
2022/08/16 16:56:39;;;;;;;;;;;;;;;;;;2206063;67;1151;-57
2022/08/16 16:59:12;;;;;;;;;;;;;;;;;;2206070;67;1227;-55
2022/08/16 17:01:48;;;;;;;;;;;;;;;;;;2206156;59;1637;-54
2022/08/16 17:04:23;;;;;;;;;;;;;;;;;;2206805;59;1271;-53
2022/08/16 17:06:56;;;;;;;;;;;;;;;;;;2206216;67;1146;-54
2022/08/16 17:09:29;;;;;;;;;;;;;;;;;;2206398;59;1936;-53
2022/08/16 17:12:02;;;;;;;;;;;;;;;;;;2206677;59;1235;-54
2022/08/16 17:14:38;;;;;;;;;;;;;;;;;;2206271;67;1076;-54
2022/08/16 17:17:12;;;;;;;;;;;;;;;;;;2206272;67;1256;-54
2022/08/16 17:19:45;;;;;;;;;;;;;;;;;;2206179;67;1144;-55
2022/08/16 17:22:19;;;;;;;;;;;;;;;;;;2206012;59;1695;-53
2022/08/16 17:24:53;;;;;;;;;;;;;;;;;;2206113;67;1211;-54
2022/08/16 17:27:27;;;;;;;;;;;;;;;;;;2205974;67;1211;-55
2022/08/16 17:30:04;;;;;;;;;;;;;;;;;;2206465;67;1948;-54
2022/08/16 17:32:38;;;;;;;;;;;;;;;;;;2207735;67;1036;-54
2022/08/16 17:35:12;;;;;;;;;;;;;;;;;;2206912;67;1249;-54
2022/08/16 17:37:46;;;;;;;;;;;;;;;;;;2205936;67;1521;-54
2022/08/16 17:40:19;;;;;;;;;;;;;;;;;;2205855;67;1215;-53
2022/08/16 17:42:53;;;;;;;;;;;;;;;;;;2206135;59;1304;-55
2022/08/16 17:45:29;;;;;;;;;;;;;;;;;;2206984;67;1194;-54
2022/08/16 17:48:02;;;;;;;;;;;;;;;;;;2206784;67;1293;-53
2022/08/16 17:50:36;;;;;;;;;;;;;;;;;;2207247;67;1987;-56
2022/08/16 17:53:09;;;;;;;;;;;;;;;;;;2206261;67;1108;-53
2022/08/16 17:55:45;;;;;;;;;;;;;;;;;;2206637;67;1142;-54
2022/08/16 17:58:18;;;;;;;;;;;;;;;;;;2207174;67;1230;-54
2022/08/16 18:00:55;;;;;;;;;;;;;;;;;;2205905;67;1439;-54
2022/08/16 18:03:35;;;;;;;;;;;;;;;;;;2206033;59;1502;-54
2022/08/16 18:06:09;;;;;;;;;;;;;;;;;;2205658;67;1171;-55
2022/08/16 18:08:43;;;;;;;;;;;;;;;;;;2206671;67;1072;-54